Eagle Park, Illinois
Current Conditions -  °F | °C
As of 8:53 PM on Thursday 27 Nov 2014 (Local Time) from KCPS Reporting Station
Clear Clear  
Wind Chill: 19°   Ceiling: Unl
Heat Index: 25°   Visibility: 10mi
Dew Point: 19°   Wind: 5mph
Humidity: 78%   Direction: 110°ESE
Pressure: 30.46"   Gusts: NA
Location:  38.6797°N, 90.1504°W
Report Text: KCPS 280253Z 11004KT 10SM CLR M04/M07 A3046 RMK AO2 SLP319 T10391072 58006
Loading
Personal Weather Stations






























Interactive Weather Map New forecast layout! Learn more

10-Day Weather Forecast

Advertisements
Track Severe Weather on mobile